Southlake's Hourly Summary for Saturday, March 18, 2017
Hour Temp
(f)
RH
(%)
Solar Rad.
(MJ/m2)
Rainfall
(in)
Wind
(mph)
3/18/2017 12:00 AM 71 98 0 0 6.56
3/18/2017 1:00 AM 69 99 0 0 7.33
3/18/2017 2:00 AM 68 94 0 0 8.05
3/18/2017 3:00 AM 66 97 0 0 5.37
3/18/2017 4:00 AM 64 99 0 0 3.36
3/18/2017 5:00 AM 64 98 0 0 3.08
3/18/2017 6:00 AM 64 95 0 0 3.97
3/18/2017 7:00 AM 64 95 0 0 4.14
3/18/2017 8:00 AM 65 97 0.1 0 4.98
3/18/2017 9:00 AM 67 92 0.65 0 5.14
3/18/2017 10:00 AM 71 88 1.67 0 5.93
3/18/2017 11:00 AM 74 81 2.33 0 4.3
3/18/2017 12:00 PM 78 69 3.03 0 4.47
3/18/2017 1:00 PM 80 57 2.78 0 3.3
3/18/2017 2:00 PM 82 59 2.86 0 4.14
3/18/2017 3:00 PM 84 58 2.74 0 4.98
3/18/2017 4:00 PM 84 61 2.07 0 5.7
3/18/2017 5:00 PM 84 61 1.38 0 5.99
3/18/2017 6:00 PM 82 69 0.88 0 6.71
3/18/2017 7:00 PM 79 73 0.13 0 6.26
3/18/2017 8:00 PM 76 73 0 0 5.71
3/18/2017 9:00 PM 74 82 0 0 4.31
3/18/2017 10:00 PM 72 91 0 0 3.52
3/18/2017 11:00 PM 70 93 0 0 2.69
Data Summary 73 82 20.62 0.00 5.00